Archival Weather

Phoenix Sky Harbor Intl

Phoenix, Arizona (KPHX)

Report from: Thursday, December 7, 2023 4:51 AM MST
Current time: Monday, July 22, 2024 4:54 AM MST

Current weather – Weather history – Daily summaries
Weather forecast

Temperature12.8°C (55.0°F)
Dew point1.7°C (35.1°F)
Winds 7 kts (3.6 m/s, 8.1 mph) East-Southeast (110°)
Visibility10 mi. (16.1 km)
Clouds Ceiling: Broken clouds 25,000 ft. (7,620 m)
Altimeter29.97 in.Hg (1015 mB)
Relative humidity47 %
Density altitude-179 ft. (-54 m)
Sea-level pressure101.4 kPa (1014 mB, 29.94 in.Hg)
Max temp last 6 hours17.8°C (64.0°F)
Min temp last 6 hours12.2°C (54.0°F)
Remarks Automated weather observing station with precipitation discriminator
Pressure falling more slowly
Flight conditions Visual Meteorological Conditions
Raw dataKPHX 071151Z 11007KT 10SM BKN250 13/02 A2997 RMK AO2 SLP139 T01280017 10178 20122 56005
An error has occurred. This application may no longer respond until reloaded. Reload 🗙